sensor_id;sensor_type;location;lat;lon;timestamp;temperature;humidity
20303;DHT22;10310;50.906;4.622;2022-10-31T00:01:20;13.40;99.90
20303;DHT22;10310;50.906;4.622;2022-10-31T00:03:47;13.20;99.90
20303;DHT22;10310;50.906;4.622;2022-10-31T00:06:18;13.40;99.90
20303;DHT22;10310;50.906;4.622;2022-10-31T00:08:45;13.30;99.90
20303;DHT22;10310;50.906;4.622;2022-10-31T00:11:12;13.30;99.90
20303;DHT22;10310;50.906;4.622;2022-10-31T00:13:39;13.30;99.90
20303;DHT22;10310;50.906;4.622;2022-10-31T00:16:13;13.30;99.90
20303;DHT22;10310;50.906;4.622;2022-10-31T00:18:41;13.30;99.90
20303;DHT22;10310;50.906;4.622;2022-10-31T00:21:08;13.20;99.90
20303;DHT22;10310;50.906;4.622;2022-10-31T00:23:37;13.20;99.90
20303;DHT22;10310;50.906;4.622;2022-10-31T00:26:04;13.20;99.90
20303;DHT22;10310;50.906;4.622;2022-10-31T00:28:32;13.20;99.90
20303;DHT22;10310;50.906;4.622;2022-10-31T00:31:00;13.10;99.90
20303;DHT22;10310;50.906;4.622;2022-10-31T00:33:27;13.00;99.90
20303;DHT22;10310;50.906;4.622;2022-10-31T00:35:55;13.00;99.90
20303;DHT22;10310;50.906;4.622;2022-10-31T00:38:22;12.90;99.90
20303;DHT22;10310;50.906;4.622;2022-10-31T00:40:53;12.90;99.90
20303;DHT22;10310;50.906;4.622;2022-10-31T00:43:20;12.80;99.90
20303;DHT22;10310;50.906;4.622;2022-10-31T00:45:47;12.50;99.90
20303;DHT22;10310;50.906;4.622;2022-10-31T00:48:14;12.70;99.90
20303;DHT22;10310;50.906;4.622;2022-10-31T00:50:41;12.60;99.90
20303;DHT22;10310;50.906;4.622;2022-10-31T00:53:08;12.60;99.90
20303;DHT22;10310;50.906;4.622;2022-10-31T00:55:36;12.50;99.90
20303;DHT22;10310;50.906;4.622;2022-10-31T00:58:04;12.50;99.90
20303;DHT22;10310;50.906;4.622;2022-10-31T01:00:31;12.30;99.90
20303;DHT22;10310;50.906;4.622;2022-10-31T01:02:59;12.30;99.90
20303;DHT22;10310;50.906;4.622;2022-10-31T01:05:26;12.20;99.90
20303;DHT22;10310;50.906;4.622;2022-10-31T01:07:53;12.10;99.90
20303;DHT22;10310;50.906;4.622;2022-10-31T01:10:20;12.10;99.90
20303;DHT22;10310;50.906;4.622;2022-10-31T01:12:48;12.00;99.90
20303;DHT22;10310;50.906;4.622;2022-10-31T01:15:18;12.00;99.90
20303;DHT22;10310;50.906;4.622;2022-10-31T01:17:45;11.90;99.90
20303;DHT22;10310;50.906;4.622;2022-10-31T01:20:14;11.90;99.90
20303;DHT22;10310;50.906;4.622;2022-10-31T01:22:41;11.80;99.90
20303;DHT22;10310;50.906;4.622;2022-10-31T01:25:09;11.80;99.90
20303;DHT22;10310;50.906;4.622;2022-10-31T01:27:36;11.80;99.90
20303;DHT22;10310;50.906;4.622;2022-10-31T01:30:04;11.80;99.90
20303;DHT22;10310;50.906;4.622;2022-10-31T01:32:33;11.80;99.90
20303;DHT22;10310;50.906;4.622;2022-10-31T01:34:59;11.90;99.90
20303;DHT22;10310;50.906;4.622;2022-10-31T01:37:26;11.90;99.90
20303;DHT22;10310;50.906;4.622;2022-10-31T01:39:53;11.90;99.90
20303;DHT22;10310;50.906;4.622;2022-10-31T01:42:22;11.80;99.90
20303;DHT22;10310;50.906;4.622;2022-10-31T01:44:59;11.80;99.90
20303;DHT22;10310;50.906;4.622;2022-10-31T01:47:35;12.50;99.90
20303;DHT22;10310;50.906;4.622;2022-10-31T01:50:06;11.70;99.90
20303;DHT22;10310;50.906;4.622;2022-10-31T01:52:38;11.70;99.90
20303;DHT22;10310;50.906;4.622;2022-10-31T01:55:09;11.60;99.90
20303;DHT22;10310;50.906;4.622;2022-10-31T01:57:44;11.60;99.90
20303;DHT22;10310;50.906;4.622;2022-10-31T02:00:13;11.60;99.90
20303;DHT22;10310;50.906;4.622;2022-10-31T02:02:42;11.50;99.90
20303;DHT22;10310;50.906;4.622;2022-10-31T02:05:15;11.50;99.90
20303;DHT22;10310;50.906;4.622;2022-10-31T02:07:48;11.40;99.90
20303;DHT22;10310;50.906;4.622;2022-10-31T02:10:16;11.90;99.90
20303;DHT22;10310;50.906;4.622;2022-10-31T02:12:47;11.30;99.90
20303;DHT22;10310;50.906;4.622;2022-10-31T02:15:14;11.30;99.90
20303;DHT22;10310;50.906;4.622;2022-10-31T02:17:42;11.30;99.90
20303;DHT22;10310;50.906;4.622;2022-10-31T02:20:15;11.20;99.90
20303;DHT22;10310;50.906;4.622;2022-10-31T02:23:11;11.10;99.90
20303;DHT22;10310;50.906;4.622;2022-10-31T02:28:58;11.10;99.90
20303;DHT22;10310;50.906;4.622;2022-10-31T02:31:35;11.00;99.90
20303;DHT22;10310;50.906;4.622;2022-10-31T02:34:08;11.00;99.90
20303;DHT22;10310;50.906;4.622;2022-10-31T02:36:43;11.00;99.90
20303;DHT22;10310;50.906;4.622;2022-10-31T02:39:15;11.00;99.90
20303;DHT22;10310;50.906;4.622;2022-10-31T02:41:49;11.00;99.90
20303;DHT22;10310;50.906;4.622;2022-10-31T02:44:22;11.00;99.90
20303;DHT22;10310;50.906;4.622;2022-10-31T02:46:59;11.00;99.90
20303;DHT22;10310;50.906;4.622;2022-10-31T02:49:36;11.00;99.90
20303;DHT22;10310;50.906;4.622;2022-10-31T02:52:17;11.00;99.90
20303;DHT22;10310;50.906;4.622;2022-10-31T02:54:45;10.90;99.90
20303;DHT22;10310;50.906;4.622;2022-10-31T02:57:15;10.90;99.90
20303;DHT22;10310;50.906;4.622;2022-10-31T02:59:47;10.90;99.90
20303;DHT22;10310;50.906;4.622;2022-10-31T03:02:31;11.00;99.90
20303;DHT22;10310;50.906;4.622;2022-10-31T03:05:30;11.10;99.90
20303;DHT22;10310;50.906;4.622;2022-10-31T03:08:08;11.30;99.90
20303;DHT22;10310;50.906;4.622;2022-10-31T03:10:43;11.10;99.90
20303;DHT22;10310;50.906;4.622;2022-10-31T03:13:20;11.00;99.90
20303;DHT22;10310;50.906;4.622;2022-10-31T03:15:51;10.90;99.90
20303;DHT22;10310;50.906;4.622;2022-10-31T03:18:25;11.00;99.90
20303;DHT22;10310;50.906;4.622;2022-10-31T03:20:58;11.20;99.90
20303;DHT22;10310;50.906;4.622;2022-10-31T03:23:27;10.90;99.90
20303;DHT22;10310;50.906;4.622;2022-10-31T03:25:55;10.90;99.90
20303;DHT22;10310;50.906;4.622;2022-10-31T03:28:26;10.90;99.90
20303;DHT22;10310;50.906;4.622;2022-10-31T03:30:56;10.80;99.90
20303;DHT22;10310;50.906;4.622;2022-10-31T03:33:28;10.80;99.90
20303;DHT22;10310;50.906;4.622;2022-10-31T03:36:00;10.80;99.90
20303;DHT22;10310;50.906;4.622;2022-10-31T03:38:28;10.30;99.90
20303;DHT22;10310;50.906;4.622;2022-10-31T03:40:58;10.90;99.90
20303;DHT22;10310;50.906;4.622;2022-10-31T03:43:28;10.90;99.90
20303;DHT22;10310;50.906;4.622;2022-10-31T03:45:57;10.90;99.90
20303;DHT22;10310;50.906;4.622;2022-10-31T03:48:26;10.80;99.90
20303;DHT22;10310;50.906;4.622;2022-10-31T03:51:01;10.80;99.90
20303;DHT22;10310;50.906;4.622;2022-10-31T03:53:33;10.80;99.90
20303;DHT22;10310;50.906;4.622;2022-10-31T03:56:04;10.70;99.90
20303;DHT22;10310;50.906;4.622;2022-10-31T03:58:35;10.70;99.90
20303;DHT22;10310;50.906;4.622;2022-10-31T04:01:06;10.70;99.90
20303;DHT22;10310;50.906;4.622;2022-10-31T04:03:36;10.60;99.90
20303;DHT22;10310;50.906;4.622;2022-10-31T04:06:06;10.60;99.90
20303;DHT22;10310;50.906;4.622;2022-10-31T04:08:39;10.60;99.90
20303;DHT22;10310;50.906;4.622;2022-10-31T04:11:07;10.70;99.90
20303;DHT22;10310;50.906;4.622;2022-10-31T04:13:38;10.70;99.90
20303;DHT22;10310;50.906;4.622;2022-10-31T04:16:07;10.70;99.90
20303;DHT22;10310;50.906;4.622;2022-10-31T04:18:36;10.70;99.90
20303;DHT22;10310;50.906;4.622;2022-10-31T04:21:04;10.10;99.90
20303;DHT22;10310;50.906;4.622;2022-10-31T04:23:33;10.60;99.90
20303;DHT22;10310;50.906;4.622;2022-10-31T04:26:00;10.60;99.90
20303;DHT22;10310;50.906;4.622;2022-10-31T04:28:28;10.60;99.90
20303;DHT22;10310;50.906;4.622;2022-10-31T04:30:54;10.50;99.90
20303;DHT22;10310;50.906;4.622;2022-10-31T04:33:23;10.60;99.90
20303;DHT22;10310;50.906;4.622;2022-10-31T04:35:52;10.50;99.90
20303;DHT22;10310;50.906;4.622;2022-10-31T04:38:19;10.50;99.90
20303;DHT22;10310;50.906;4.622;2022-10-31T04:40:46;10.50;99.90
20303;DHT22;10310;50.906;4.622;2022-10-31T04:43:13;10.50;99.90
20303;DHT22;10310;50.906;4.622;2022-10-31T04:45:40;10.50;99.90
20303;DHT22;10310;50.906;4.622;2022-10-31T04:48:07;10.50;99.90
20303;DHT22;10310;50.906;4.622;2022-10-31T04:50:34;10.50;99.90
20303;DHT22;10310;50.906;4.622;2022-10-31T04:53:02;10.50;99.90
20303;DHT22;10310;50.906;4.622;2022-10-31T04:55:29;10.50;99.90
20303;DHT22;10310;50.906;4.622;2022-10-31T04:57:56;10.60;99.90
20303;DHT22;10310;50.906;4.622;2022-10-31T05:00:24;10.60;99.90
20303;DHT22;10310;50.906;4.622;2022-10-31T05:02:52;10.60;99.90
20303;DHT22;10310;50.906;4.622;2022-10-31T05:05:23;10.70;99.90
20303;DHT22;10310;50.906;4.622;2022-10-31T05:07:52;10.60;99.90
20303;DHT22;10310;50.906;4.622;2022-10-31T05:10:22;10.60;99.90
20303;DHT22;10310;50.906;4.622;2022-10-31T05:12:51;10.70;99.90
20303;DHT22;10310;50.906;4.622;2022-10-31T05:15:19;10.70;99.90
20303;DHT22;10310;50.906;4.622;2022-10-31T05:17:47;10.70;99.90
20303;DHT22;10310;50.906;4.622;2022-10-31T05:20:17;10.70;99.90
20303;DHT22;10310;50.906;4.622;2022-10-31T05:22:44;10.70;99.90
20303;DHT22;10310;50.906;4.622;2022-10-31T05:25:12;10.70;99.90
20303;DHT22;10310;50.906;4.622;2022-10-31T05:27:41;10.80;99.90
20303;DHT22;10310;50.906;4.622;2022-10-31T05:30:10;11.00;99.90
20303;DHT22;10310;50.906;4.622;2022-10-31T05:32:38;10.80;99.90
20303;DHT22;10310;50.906;4.622;2022-10-31T05:35:06;10.90;99.90
20303;DHT22;10310;50.906;4.622;2022-10-31T05:37:34;10.90;99.90
20303;DHT22;10310;50.906;4.622;2022-10-31T05:40:02;10.90;99.90
20303;DHT22;10310;50.906;4.622;2022-10-31T05:42:30;11.00;99.90
20303;DHT22;10310;50.906;4.622;2022-10-31T05:45:00;10.90;99.90
20303;DHT22;10310;50.906;4.622;2022-10-31T05:47:27;10.90;99.90
20303;DHT22;10310;50.906;4.622;2022-10-31T05:49:54;10.90;99.90
20303;DHT22;10310;50.906;4.622;2022-10-31T05:52:21;10.90;99.90
20303;DHT22;10310;50.906;4.622;2022-10-31T05:54:48;10.90;99.90
20303;DHT22;10310;50.906;4.622;2022-10-31T05:57:15;10.90;99.90
20303;DHT22;10310;50.906;4.622;2022-10-31T05:59:41;10.90;99.90
20303;DHT22;10310;50.906;4.622;2022-10-31T06:02:10;11.00;99.90
20303;DHT22;10310;50.906;4.622;2022-10-31T06:04:37;10.90;99.90
20303;DHT22;10310;50.906;4.622;2022-10-31T06:07:03;11.00;99.90
20303;DHT22;10310;50.906;4.622;2022-10-31T06:09:30;11.10;99.90
20303;DHT22;10310;50.906;4.622;2022-10-31T06:11:57;11.50;99.90
20303;DHT22;10310;50.906;4.622;2022-10-31T06:14:24;11.10;99.90
20303;DHT22;10310;50.906;4.622;2022-10-31T06:16:51;11.20;99.90
20303;DHT22;10310;50.906;4.622;2022-10-31T06:19:19;11.30;99.90
20303;DHT22;10310;50.906;4.622;2022-10-31T06:21:46;11.30;99.90
20303;DHT22;10310;50.906;4.622;2022-10-31T06:24:13;11.30;99.90
20303;DHT22;10310;50.906;4.622;2022-10-31T06:26:40;11.30;99.90
20303;DHT22;10310;50.906;4.622;2022-10-31T06:29:07;11.30;99.90
20303;DHT22;10310;50.906;4.622;2022-10-31T06:31:34;11.40;99.90
20303;DHT22;10310;50.906;4.622;2022-10-31T06:34:01;11.40;99.90
20303;DHT22;10310;50.906;4.622;2022-10-31T06:36:29;11.50;99.90
20303;DHT22;10310;50.906;4.622;2022-10-31T06:38:56;11.50;99.90
20303;DHT22;10310;50.906;4.622;2022-10-31T06:41:23;11.50;99.90
20303;DHT22;10310;50.906;4.622;2022-10-31T06:43:50;11.50;99.90
20303;DHT22;10310;50.906;4.622;2022-10-31T06:46:17;11.50;99.90
20303;DHT22;10310;50.906;4.622;2022-10-31T06:48:44;11.50;99.90
20303;DHT22;10310;50.906;4.622;2022-10-31T06:51:11;11.50;99.90
20303;DHT22;10310;50.906;4.622;2022-10-31T06:53:39;11.50;99.90
20303;DHT22;10310;50.906;4.622;2022-10-31T06:56:06;11.50;99.90
20303;DHT22;10310;50.906;4.622;2022-10-31T06:58:33;11.50;99.90
20303;DHT22;10310;50.906;4.622;2022-10-31T07:01:00;11.60;99.90
20303;DHT22;10310;50.906;4.622;2022-10-31T07:03:27;11.60;99.90
20303;DHT22;10310;50.906;4.622;2022-10-31T07:05:55;11.70;99.90
20303;DHT22;10310;50.906;4.622;2022-10-31T07:08:23;11.80;99.90
20303;DHT22;10310;50.906;4.622;2022-10-31T07:10:53;11.90;99.90
20303;DHT22;10310;50.906;4.622;2022-10-31T07:13:21;11.70;99.90
20303;DHT22;10310;50.906;4.622;2022-10-31T07:15:51;11.90;99.90
20303;DHT22;10310;50.906;4.622;2022-10-31T07:18:19;11.90;99.90
20303;DHT22;10310;50.906;4.622;2022-10-31T07:20:46;12.00;99.90
20303;DHT22;10310;50.906;4.622;2022-10-31T07:23:14;12.00;99.90
20303;DHT22;10310;50.906;4.622;2022-10-31T07:25:41;12.10;99.90
20303;DHT22;10310;50.906;4.622;2022-10-31T07:28:09;12.20;99.90
20303;DHT22;10310;50.906;4.622;2022-10-31T07:30:36;12.40;99.90
20303;DHT22;10310;50.906;4.622;2022-10-31T07:33:04;12.10;99.90
20303;DHT22;10310;50.906;4.622;2022-10-31T07:35:31;12.20;99.90
20303;DHT22;10310;50.906;4.622;2022-10-31T07:38:06;12.30;99.90
20303;DHT22;10310;50.906;4.622;2022-10-31T07:40:34;12.30;99.90
20303;DHT22;10310;50.906;4.622;2022-10-31T07:43:01;12.30;99.90
20303;DHT22;10310;50.906;4.622;2022-10-31T07:45:29;12.50;99.90
20303;DHT22;10310;50.906;4.622;2022-10-31T07:47:56;12.50;99.90
20303;DHT22;10310;50.906;4.622;2022-10-31T07:50:25;12.60;99.90
20303;DHT22;10310;50.906;4.622;2022-10-31T07:53:02;12.70;99.90
20303;DHT22;10310;50.906;4.622;2022-10-31T07:55:30;12.80;99.90
20303;DHT22;10310;50.906;4.622;2022-10-31T07:57:58;12.90;99.90
20303;DHT22;10310;50.906;4.622;2022-10-31T08:00:25;13.00;99.90
20303;DHT22;10310;50.906;4.622;2022-10-31T08:03:01;13.10;99.90
20303;DHT22;10310;50.906;4.622;2022-10-31T08:05:28;13.20;99.90
20303;DHT22;10310;50.906;4.622;2022-10-31T08:07:56;13.10;99.90
20303;DHT22;10310;50.906;4.622;2022-10-31T08:10:24;13.10;99.90
20303;DHT22;10310;50.906;4.622;2022-10-31T08:12:55;13.20;99.90
20303;DHT22;10310;50.906;4.622;2022-10-31T08:15:23;13.30;99.90
20303;DHT22;10310;50.906;4.622;2022-10-31T08:17:50;13.40;99.90
20303;DHT22;10310;50.906;4.622;2022-10-31T08:20:19;13.40;99.90
20303;DHT22;10310;50.906;4.622;2022-10-31T08:22:53;13.50;99.90
20303;DHT22;10310;50.906;4.622;2022-10-31T08:25:20;13.60;99.90
20303;DHT22;10310;50.906;4.622;2022-10-31T08:27:49;13.70;99.90
20303;DHT22;10310;50.906;4.622;2022-10-31T08:30:17;13.80;99.90
20303;DHT22;10310;50.906;4.622;2022-10-31T08:32:44;13.90;99.90
20303;DHT22;10310;50.906;4.622;2022-10-31T08:35:11;14.00;99.90
20303;DHT22;10310;50.906;4.622;2022-10-31T08:37:39;13.90;99.90
20303;DHT22;10310;50.906;4.622;2022-10-31T08:40:07;14.00;99.90
20303;DHT22;10310;50.906;4.622;2022-10-31T08:42:34;13.90;99.90
20303;DHT22;10310;50.906;4.622;2022-10-31T08:45:01;13.90;99.90
20303;DHT22;10310;50.906;4.622;2022-10-31T08:47:28;13.90;99.90
20303;DHT22;10310;50.906;4.622;2022-10-31T08:49:55;14.00;99.90
20303;DHT22;10310;50.906;4.622;2022-10-31T08:52:23;13.90;99.90
20303;DHT22;10310;50.906;4.622;2022-10-31T08:54:52;13.90;99.90
20303;DHT22;10310;50.906;4.622;2022-10-31T08:57:19;13.80;99.90
20303;DHT22;10310;50.906;4.622;2022-10-31T08:59:45;13.90;99.90
20303;DHT22;10310;50.906;4.622;2022-10-31T09:02:12;14.00;99.90
20303;DHT22;10310;50.906;4.622;2022-10-31T09:04:39;14.10;99.90
20303;DHT22;10310;50.906;4.622;2022-10-31T09:07:06;14.20;99.90
20303;DHT22;10310;50.906;4.622;2022-10-31T09:09:33;14.20;99.90
20303;DHT22;10310;50.906;4.622;2022-10-31T09:12:01;14.30;99.90
20303;DHT22;10310;50.906;4.622;2022-10-31T09:14:28;14.40;99.90
20303;DHT22;10310;50.906;4.622;2022-10-31T09:16:55;14.40;99.90
20303;DHT22;10310;50.906;4.622;2022-10-31T09:19:22;14.50;99.90
20303;DHT22;10310;50.906;4.622;2022-10-31T09:21:52;14.60;99.90
20303;DHT22;10310;50.906;4.622;2022-10-31T09:24:19;14.70;99.90
20303;DHT22;10310;50.906;4.622;2022-10-31T09:26:46;14.90;99.90
20303;DHT22;10310;50.906;4.622;2022-10-31T09:29:14;14.90;99.90
20303;DHT22;10310;50.906;4.622;2022-10-31T09:31:41;14.80;99.90
20303;DHT22;10310;50.906;4.622;2022-10-31T09:34:08;15.00;99.90
20303;DHT22;10310;50.906;4.622;2022-10-31T09:36:35;15.00;99.90
20303;DHT22;10310;50.906;4.622;2022-10-31T09:39:02;15.00;99.90
20303;DHT22;10310;50.906;4.622;2022-10-31T09:41:40;15.00;99.90
20303;DHT22;10310;50.906;4.622;2022-10-31T09:44:19;15.10;99.90
20303;DHT22;10310;50.906;4.622;2022-10-31T09:46:54;15.10;99.90
20303;DHT22;10310;50.906;4.622;2022-10-31T09:49:43;15.10;99.90
20303;DHT22;10310;50.906;4.622;2022-10-31T09:52:18;15.10;99.90
20303;DHT22;10310;50.906;4.622;2022-10-31T09:54:50;15.10;99.90
20303;DHT22;10310;50.906;4.622;2022-10-31T09:57:24;15.10;99.90
20303;DHT22;10310;50.906;4.622;2022-10-31T09:59:53;15.00;99.90
20303;DHT22;10310;50.906;4.622;2022-10-31T10:02:23;15.10;99.90
20303;DHT22;10310;50.906;4.622;2022-10-31T10:04:56;15.30;99.90
20303;DHT22;10310;50.906;4.622;2022-10-31T10:07:30;15.50;99.90
20303;DHT22;10310;50.906;4.622;2022-10-31T10:10:00;15.40;99.90
20303;DHT22;10310;50.906;4.622;2022-10-31T10:12:37;15.70;99.90
20303;DHT22;10310;50.906;4.622;2022-10-31T10:15:27;15.70;99.90
20303;DHT22;10310;50.906;4.622;2022-10-31T10:18:03;15.90;99.90
20303;DHT22;10310;50.906;4.622;2022-10-31T10:20:35;15.90;99.90
20303;DHT22;10310;50.906;4.622;2022-10-31T10:23:32;16.10;99.90
20303;DHT22;10310;50.906;4.622;2022-10-31T10:26:06;16.10;99.90
20303;DHT22;10310;50.906;4.622;2022-10-31T10:28:38;16.30;99.90
20303;DHT22;10310;50.906;4.622;2022-10-31T10:31:13;16.40;99.90
20303;DHT22;10310;50.906;4.622;2022-10-31T10:33:42;16.60;99.90
20303;DHT22;10310;50.906;4.622;2022-10-31T10:36:13;16.60;99.90
20303;DHT22;10310;50.906;4.622;2022-10-31T10:38:52;16.80;99.90
20303;DHT22;10310;50.906;4.622;2022-10-31T10:41:22;16.90;99.90
20303;DHT22;10310;50.906;4.622;2022-10-31T10:43:50;16.80;99.90
20303;DHT22;10310;50.906;4.622;2022-10-31T10:46:19;16.80;99.90
20303;DHT22;10310;50.906;4.622;2022-10-31T10:49:15;16.70;99.90
20303;DHT22;10310;50.906;4.622;2022-10-31T10:51:46;16.80;99.90
20303;DHT22;10310;50.906;4.622;2022-10-31T10:54:35;16.90;99.90
20303;DHT22;10310;50.906;4.622;2022-10-31T10:57:14;17.10;99.90
20303;DHT22;10310;50.906;4.622;2022-10-31T10:59:45;17.20;99.90
20303;DHT22;10310;50.906;4.622;2022-10-31T11:02:18;17.30;99.90
20303;DHT22;10310;50.906;4.622;2022-10-31T11:04:49;17.40;99.90
20303;DHT22;10310;50.906;4.622;2022-10-31T11:07:18;17.40;99.90
20303;DHT22;10310;50.906;4.622;2022-10-31T11:09:45;17.30;99.90
20303;DHT22;10310;50.906;4.622;2022-10-31T11:12:20;17.30;99.90
20303;DHT22;10310;50.906;4.622;2022-10-31T11:14:51;17.40;99.90
20303;DHT22;10310;50.906;4.622;2022-10-31T11:17:26;17.40;99.90
20303;DHT22;10310;50.906;4.622;2022-10-31T11:20:04;17.60;99.90
20303;DHT22;10310;50.906;4.622;2022-10-31T11:22:31;17.50;99.90
20303;DHT22;10310;50.906;4.622;2022-10-31T11:24:58;17.70;99.90
20303;DHT22;10310;50.906;4.622;2022-10-31T11:27:26;17.60;99.90
20303;DHT22;10310;50.906;4.622;2022-10-31T11:29:53;17.80;99.90
20303;DHT22;10310;50.906;4.622;2022-10-31T11:32:31;17.90;99.90
20303;DHT22;10310;50.906;4.622;2022-10-31T11:35:01;18.00;99.90
20303;DHT22;10310;50.906;4.622;2022-10-31T11:37:31;18.20;99.90
20303;DHT22;10310;50.906;4.622;2022-10-31T11:40:03;18.30;99.90
20303;DHT22;10310;50.906;4.622;2022-10-31T11:42:41;18.50;99.90
20303;DHT22;10310;50.906;4.622;2022-10-31T11:45:15;18.60;99.90
20303;DHT22;10310;50.906;4.622;2022-10-31T11:47:46;18.60;99.90
20303;DHT22;10310;50.906;4.622;2022-10-31T11:50:19;18.70;99.90
20303;DHT22;10310;50.906;4.622;2022-10-31T11:52:48;18.60;99.90
20303;DHT22;10310;50.906;4.622;2022-10-31T11:55:26;18.60;99.90
20303;DHT22;10310;50.906;4.622;2022-10-31T11:57:56;18.60;99.90
20303;DHT22;10310;50.906;4.622;2022-10-31T12:00:26;18.60;99.90
20303;DHT22;10310;50.906;4.622;2022-10-31T12:03:12;18.60;99.90
20303;DHT22;10310;50.906;4.622;2022-10-31T12:05:42;18.70;99.90
20303;DHT22;10310;50.906;4.622;2022-10-31T12:08:12;18.90;99.90
20303;DHT22;10310;50.906;4.622;2022-10-31T12:10:45;19.00;99.90
20303;DHT22;10310;50.906;4.622;2022-10-31T12:13:28;19.00;99.90
20303;DHT22;10310;50.906;4.622;2022-10-31T12:16:02;19.10;99.90
20303;DHT22;10310;50.906;4.622;2022-10-31T12:18:43;19.20;99.90
20303;DHT22;10310;50.906;4.622;2022-10-31T12:21:24;19.40;99.90
20303;DHT22;10310;50.906;4.622;2022-10-31T12:24:01;19.50;99.90
20303;DHT22;10310;50.906;4.622;2022-10-31T12:26:34;19.40;99.90
20303;DHT22;10310;50.906;4.622;2022-10-31T12:29:13;19.40;99.90
20303;DHT22;10310;50.906;4.622;2022-10-31T12:31:51;19.40;99.90
20303;DHT22;10310;50.906;4.622;2022-10-31T12:34:45;19.30;99.90
20303;DHT22;10310;50.906;4.622;2022-10-31T12:37:24;19.20;99.90
20303;DHT22;10310;50.906;4.622;2022-10-31T12:40:01;19.20;99.90
20303;DHT22;10310;50.906;4.622;2022-10-31T12:42:40;19.10;99.90
20303;DHT22;10310;50.906;4.622;2022-10-31T12:45:38;19.20;99.90
20303;DHT22;10310;50.906;4.622;2022-10-31T12:48:19;19.20;99.90
20303;DHT22;10310;50.906;4.622;2022-10-31T12:50:58;19.20;99.90
20303;DHT22;10310;50.906;4.622;2022-10-31T12:53:40;19.30;99.90
20303;DHT22;10310;50.906;4.622;2022-10-31T12:56:23;19.40;99.90
20303;DHT22;10310;50.906;4.622;2022-10-31T12:58:54;19.50;99.90
20303;DHT22;10310;50.906;4.622;2022-10-31T13:01:26;19.60;99.90
20303;DHT22;10310;50.906;4.622;2022-10-31T13:03:58;19.60;99.90
20303;DHT22;10310;50.906;4.622;2022-10-31T13:06:32;19.30;99.90
20303;DHT22;10310;50.906;4.622;2022-10-31T13:09:02;19.40;99.90
20303;DHT22;10310;50.906;4.622;2022-10-31T13:11:35;19.40;99.90
20303;DHT22;10310;50.906;4.622;2022-10-31T13:14:07;19.40;99.90
20303;DHT22;10310;50.906;4.622;2022-10-31T13:16:39;19.40;99.90
20303;DHT22;10310;50.906;4.622;2022-10-31T13:19:12;19.60;99.90
20303;DHT22;10310;50.906;4.622;2022-10-31T13:21:48;19.70;99.90
20303;DHT22;10310;50.906;4.622;2022-10-31T13:24:21;19.80;99.90
20303;DHT22;10310;50.906;4.622;2022-10-31T13:26:51;20.00;99.90
20303;DHT22;10310;50.906;4.622;2022-10-31T13:29:23;20.00;99.90
20303;DHT22;10310;50.906;4.622;2022-10-31T13:31:52;20.20;99.90
20303;DHT22;10310;50.906;4.622;2022-10-31T13:34:24;20.40;99.90
20303;DHT22;10310;50.906;4.622;2022-10-31T13:37:04;20.60;99.90
20303;DHT22;10310;50.906;4.622;2022-10-31T13:39:46;20.50;99.90
20303;DHT22;10310;50.906;4.622;2022-10-31T13:42:20;20.40;99.90
20303;DHT22;10310;50.906;4.622;2022-10-31T13:44:49;20.10;99.90
20303;DHT22;10310;50.906;4.622;2022-10-31T13:47:27;20.00;99.90
20303;DHT22;10310;50.906;4.622;2022-10-31T13:50:06;19.90;99.90
20303;DHT22;10310;50.906;4.622;2022-10-31T13:52:34;19.80;99.90
20303;DHT22;10310;50.906;4.622;2022-10-31T13:55:02;19.80;99.90
20303;DHT22;10310;50.906;4.622;2022-10-31T13:57:37;19.90;99.90
20303;DHT22;10310;50.906;4.622;2022-10-31T14:00:12;19.80;99.90
20303;DHT22;10310;50.906;4.622;2022-10-31T14:02:51;19.80;99.90
20303;DHT22;10310;50.906;4.622;2022-10-31T14:05:23;19.60;99.90
20303;DHT22;10310;50.906;4.622;2022-10-31T14:07:52;19.40;99.90
20303;DHT22;10310;50.906;4.622;2022-10-31T14:10:22;19.40;99.90
20303;DHT22;10310;50.906;4.622;2022-10-31T14:12:51;19.40;99.90
20303;DHT22;10310;50.906;4.622;2022-10-31T14:15:20;19.50;99.90
20303;DHT22;10310;50.906;4.622;2022-10-31T14:17:49;19.50;99.90
20303;DHT22;10310;50.906;4.622;2022-10-31T14:20:32;19.50;99.90
20303;DHT22;10310;50.906;4.622;2022-10-31T14:26:20;20.80;99.90
20303;DHT22;10310;50.906;4.622;2022-10-31T14:28:49;21.40;70.70
20303;DHT22;10310;50.906;4.622;2022-10-31T14:31:34;21.90;29.20
20303;DHT22;10310;50.906;4.622;2022-10-31T14:34:17;22.50;1.00
20303;DHT22;10310;50.906;4.622;2022-10-31T14:36:53;22.50;1.00
20303;DHT22;10310;50.906;4.622;2022-10-31T14:39:27;22.80;99.90
20303;DHT22;10310;50.906;4.622;2022-10-31T14:42:08;22.80;1.00
20303;DHT22;10310;50.906;4.622;2022-10-31T14:44:53;22.90;1.00
20303;DHT22;10310;50.906;4.622;2022-10-31T14:47:31;22.70;1.00
20303;DHT22;10310;50.906;4.622;2022-10-31T14:50:21;22.90;99.90
20303;DHT22;10310;50.906;4.622;2022-10-31T14:52:53;23.00;1.00
20303;DHT22;10310;50.906;4.622;2022-10-31T14:55:23;22.70;99.90
20303;DHT22;10310;50.906;4.622;2022-10-31T14:57:54;22.00;99.90
20303;DHT22;10310;50.906;4.622;2022-10-31T15:00:22;21.70;1.00
20303;DHT22;10310;50.906;4.622;2022-10-31T15:03:03;21.30;1.00
20303;DHT22;10310;50.906;4.622;2022-10-31T15:05:32;21.20;1.00
20303;DHT22;10310;50.906;4.622;2022-10-31T15:07:59;21.00;1.00
20303;DHT22;10310;50.906;4.622;2022-10-31T15:10:28;21.30;1.00
20303;DHT22;10310;50.906;4.622;2022-10-31T15:13:10;21.20;1.00
20303;DHT22;10310;50.906;4.622;2022-10-31T15:15:38;21.00;1.00
20303;DHT22;10310;50.906;4.622;2022-10-31T15:18:06;21.00;1.00
20303;DHT22;10310;50.906;4.622;2022-10-31T15:20:37;20.80;1.00
20303;DHT22;10310;50.906;4.622;2022-10-31T15:23:11;20.70;1.00
20303;DHT22;10310;50.906;4.622;2022-10-31T15:25:41;20.50;13.40
20303;DHT22;10310;50.906;4.622;2022-10-31T15:28:15;19.70;99.90
20303;DHT22;10310;50.906;4.622;2022-10-31T15:30:50;19.20;99.90
20303;DHT22;10310;50.906;4.622;2022-10-31T15:33:20;18.70;99.90
20303;DHT22;10310;50.906;4.622;2022-10-31T15:35:55;18.30;99.90
20303;DHT22;10310;50.906;4.622;2022-10-31T15:38:23;18.00;99.90
20303;DHT22;10310;50.906;4.622;2022-10-31T15:40:55;17.80;99.90
20303;DHT22;10310;50.906;4.622;2022-10-31T15:43:24;17.60;99.90
20303;DHT22;10310;50.906;4.622;2022-10-31T15:45:51;17.50;99.90
20303;DHT22;10310;50.906;4.622;2022-10-31T15:48:22;17.30;99.90
20303;DHT22;10310;50.906;4.622;2022-10-31T15:50:52;17.20;99.90
20303;DHT22;10310;50.906;4.622;2022-10-31T15:53:24;17.00;99.90
20303;DHT22;10310;50.906;4.622;2022-10-31T15:55:53;16.90;99.90
20303;DHT22;10310;50.906;4.622;2022-10-31T15:58:21;16.80;99.90
20303;DHT22;10310;50.906;4.622;2022-10-31T16:00:59;16.70;99.90
20303;DHT22;10310;50.906;4.622;2022-10-31T16:03:28;16.60;99.90